This is the latest recevied weather packets stored in our database for station/object KJ4HF. If no packets are shown the sender has not sent any weather packets the latest 10 day(s).
| Time | Temp. | Humidity | Pressure | Rain* | Wind** | Luminosity | Snow |
|---|---|---|---|---|---|---|---|
| 1778087442 | 22.78° C | 59% | 1015.3 hPa | 0 mm | - | 83 W/m² | - |
| 1778086542 | 23.33° C | 60% | 1014.4 hPa | 0 mm | - | 357 W/m² | - |
| 1778082948 | 21.67° C | 63% | 1014.2 hPa | 0 mm | - | 427 W/m² | - |
| 1778081744 | 21.11° C | 68% | 1013.7 hPa | 0 mm | - | 475 W/m² | - |
| 1778080243 | 20° C | 72% | 1013.9 hPa | 0 mm | - | 260 W/m² | - |
| 1778079657 | 20° C | 71% | 1014.1 hPa | 0 mm | - | 221 W/m² | - |
| 1778076352 | 18.89° C | 72% | 1014.1 hPa | 0 mm | - | 202 W/m² | - |
| 1778075743 | 18.89° C | 72% | 1013.8 hPa | 0 mm | - | 248 W/m² | - |
| 1778075444 | 18.89° C | 72% | 1013.8 hPa | 0 mm | - | 221 W/m² | - |
| 1778075154 | 18.89° C | 72% | 1013.9 hPa | 0 mm | - | 220 W/m² | - |
| 1778073350 | 17.78° C | 73% | 1013.7 hPa | 0 mm | - | 167 W/m² | - |
| 1778070043 | 17.22° C | 73% | 1014.5 hPa | 0 mm | - | 98 W/m² | - |
| 1778069749 | 17.22° C | 73% | 1014.9 hPa | 0 mm | - | 69 W/m² | - |
| 1778066153 | 16.67° C | 75% | 1014 hPa | 0 mm | - | 53 W/m² | - |
| 1778064646 | 16.11° C | 77% | 1013.4 hPa | 0 mm | - | 44 W/m² | - |
| 1778064043 | 16.11° C | 77% | 1013.2 hPa | 0 mm | - | 21 W/m² | - |
| 1778063742 | 15.56° C | 77% | 1013.1 hPa | 0 mm | - | 7 W/m² | - |
| 1778062552 | 15.56° C | 77% | 1013.1 hPa | 0 mm | - | 0 W/m² | - |
| 1778061663 | 16.11° C | 76% | 1013.2 hPa | 0 mm | - | 0 W/m² | - |
| 1778060443 | 16.11° C | 76% | 1013.2 hPa | 0 mm | - | 0 W/m² | - |
| 1778058049 | 16.67° C | 75% | 1013.6 hPa | 0 mm | - | 0 W/m² | - |
| 1778056546 | 17.22° C | 73% | 1013.8 hPa | 0 mm | - | 0 W/m² | - |
| 1778056257 | 17.22° C | 73% | 1013.9 hPa | 0 mm | - | 0 W/m² | - |
| 1778055349 | 17.22° C | 73% | 1013.8 hPa | 0 mm | - | 0 W/m² | - |
| 1778054464 | 17.22° C | 72% | 1013.7 hPa | 0 mm | - | 0 W/m² | - |
* Rain latest hour (hover to see other rain measurements)
** Current wind speed in m/s (hover to see current wind gust speed)